Time;durP1;ratioP1;P1;durP2;ratioP2;P2;SDS_P1;SDS_P2;PMS_P1;PMS_P2;Temp;Humidity;BMP_temperature;BMP_pressure;BME280_temperature;BME280_humidity;BME280_pressure;Samples;Min_cycle;Max_cycle;Signal;HPM_P1;HPM_P2
2022/08/07 00:01:10;;;;;;;1.13;0.73;;;21.30;53.60;;;;;;5112629;28;20114;-72
2022/08/07 00:03:36;;;;;;;1.27;0.70;;;21.30;53.60;;;;;;5111738;28;20646;-72
2022/08/07 00:06:03;;;;;;;1.23;0.80;;;21.30;53.70;;;;;;5112191;28;20394;-72
2022/08/07 00:08:29;;;;;;;1.10;0.55;;;21.30;53.70;;;;;;5113526;28;20039;-72
2022/08/07 00:10:55;;;;;;;0.98;0.57;;;21.30;53.70;;;;;;5113543;28;20081;-72
2022/08/07 00:13:23;;;;;;;1.10;0.73;;;21.30;53.70;;;;;;5113464;28;20039;-72
2022/08/07 00:15:50;;;;;;;0.85;0.50;;;21.30;53.70;;;;;;5113416;28;20039;-72
2022/08/07 00:18:18;;;;;;;1.00;0.60;;;21.30;53.70;;;;;;5112159;28;20077;-72
2022/08/07 00:20:44;;;;;;;1.42;0.60;;;21.20;53.60;;;;;;5111735;28;20100;-72
2022/08/07 00:23:09;;;;;;;1.15;0.80;;;21.30;53.70;;;;;;5111849;28;20406;-72
2022/08/07 00:25:36;;;;;;;1.00;0.47;;;21.20;53.60;;;;;;5111850;28;20047;-72
2022/08/07 00:28:02;;;;;;;0.82;0.50;;;21.20;53.70;;;;;;5111875;28;20483;-72
2022/08/07 00:30:28;;;;;;;1.25;0.70;;;21.30;53.70;;;;;;5111782;28;20043;-72
2022/08/07 00:32:56;;;;;;;1.02;0.68;;;21.30;53.70;;;;;;5111673;28;20039;-72
2022/08/07 00:35:22;;;;;;;1.23;0.70;;;21.20;53.60;;;;;;5113262;27;20134;-72
2022/08/07 00:37:48;;;;;;;1.55;0.70;;;21.20;53.60;;;;;;5111952;28;20046;-72
2022/08/07 00:40:14;;;;;;;1.00;0.70;;;21.20;53.60;;;;;;5111744;28;20467;-72
2022/08/07 00:42:40;;;;;;;1.33;0.75;;;21.20;53.60;;;;;;5112814;28;20093;-72
2022/08/07 00:45:07;;;;;;;1.00;0.50;;;21.20;53.60;;;;;;5113001;28;20036;-72
2022/08/07 00:47:33;;;;;;;1.27;0.65;;;21.20;53.60;;;;;;5111353;28;20119;-72
2022/08/07 00:49:59;;;;;;;0.95;0.60;;;21.20;53.60;;;;;;5111526;28;20047;-72
2022/08/07 00:52:25;;;;;;;0.82;0.52;;;21.20;53.60;;;;;;5111451;28;20100;-72
2022/08/07 00:54:51;;;;;;;0.88;0.50;;;21.20;53.60;;;;;;5111650;28;20043;-72
2022/08/07 00:57:17;;;;;;;1.10;0.50;;;21.20;53.60;;;;;;5112768;28;20451;-72
2022/08/07 00:59:43;;;;;;;0.82;0.50;;;21.20;53.60;;;;;;5111177;28;20043;-72
2022/08/07 01:02:10;;;;;;;0.63;0.40;;;21.20;53.60;;;;;;5111474;28;20058;-72
2022/08/07 01:04:36;;;;;;;0.73;0.45;;;21.20;53.60;;;;;;5111526;28;20036;-72
2022/08/07 01:07:03;;;;;;;1.05;0.60;;;21.10;53.60;;;;;;5111253;28;20409;-72
2022/08/07 01:09:29;;;;;;;1.85;0.50;;;21.10;53.50;;;;;;5111441;28;20043;-72
2022/08/07 01:11:55;;;;;;;1.25;0.55;;;21.10;53.60;;;;;;5111465;28;20074;-72
2022/08/07 01:14:21;;;;;;;1.15;0.65;;;21.10;53.50;;;;;;5110980;28;20123;-72
2022/08/07 01:16:47;;;;;;;1.00;0.70;;;21.10;53.50;;;;;;5112425;28;20069;-72
2022/08/07 01:19:14;;;;;;;1.10;0.57;;;21.20;53.60;;;;;;5110597;28;20059;-72
2022/08/07 01:21:40;;;;;;;1.35;0.70;;;21.10;53.60;;;;;;5111102;28;20039;-72
2022/08/07 01:24:08;;;;;;;1.00;0.50;;;21.10;53.50;;;;;;5110952;28;20050;-72
2022/08/07 01:26:33;;;;;;;1.00;0.50;;;21.10;53.50;;;;;;5111075;28;20486;-72
2022/08/07 01:28:59;;;;;;;0.98;0.60;;;21.10;53.50;;;;;;5112257;28;20028;-72
2022/08/07 01:31:30;;;;;;;1.27;0.93;;;21.10;53.50;;;;;;5110885;28;20092;-72
2022/08/07 01:33:57;;;;;;;1.23;0.45;;;21.10;53.50;;;;;;5110948;28;20040;-72
2022/08/07 01:36:26;;;;;;;1.00;0.70;;;21.10;53.50;;;;;;5111162;28;20453;-72
2022/08/07 01:38:52;;;;;;;1.10;0.60;;;21.10;53.50;;;;;;5112331;28;20475;-72
2022/08/07 01:41:19;;;;;;;1.00;0.73;;;21.10;53.50;;;;;;5111111;28;20058;-72
2022/08/07 01:43:46;;;;;;;0.90;0.43;;;21.10;53.50;;;;;;5111167;28;20382;-72
2022/08/07 01:46:13;;;;;;;0.95;0.60;;;21.10;53.50;;;;;;5110996;28;20038;-72
2022/08/07 01:48:41;;;;;;;0.90;0.50;;;21.00;53.40;;;;;;5110849;28;20059;-72
2022/08/07 01:51:09;;;;;;;1.38;0.50;;;21.00;53.50;;;;;;5110813;28;20043;-72
2022/08/07 01:53:38;;;;;;;0.98;0.65;;;21.10;53.50;;;;;;5112188;28;20491;-72
2022/08/07 01:56:12;;;;;;;0.80;0.50;;;21.00;54.10;;;;;;5110759;28;20054;-72
2022/08/07 01:58:43;;;;;;;0.85;0.40;;;21.00;53.40;;;;;;5112032;28;20035;-72
2022/08/07 02:01:25;;;;;;;1.30;0.70;;;21.00;53.40;;;;;;5110630;28;20035;-72
2022/08/07 02:04:15;;;;;;;1.02;0.60;;;21.00;53.40;;;;;;5112046;28;20537;-72
2022/08/07 02:06:42;;;;;;;1.05;0.60;;;21.00;53.50;;;;;;5110753;28;20067;-72
2022/08/07 02:09:11;;;;;;;0.93;0.50;;;21.00;53.40;;;;;;5110999;28;20047;-72
2022/08/07 02:11:42;;;;;;;0.98;0.50;;;21.00;53.40;;;;;;5111746;28;20050;-72
2022/08/07 02:14:09;;;;;;;1.00;0.70;;;21.00;53.40;;;;;;5110938;28;20184;-72
2022/08/07 02:16:37;;;;;;;0.95;0.57;;;21.00;53.40;;;;;;5110510;28;20490;-72
2022/08/07 02:19:09;;;;;;;1.30;0.50;;;21.00;53.40;;;;;;5110460;28;20410;-72
2022/08/07 02:21:37;;;;;;;0.63;0.32;;;21.00;53.40;;;;;;5110805;28;20130;-72
2022/08/07 02:24:04;;;;;;;1.40;0.43;;;21.00;53.40;;;;;;5110512;28;20044;-72
2022/08/07 02:26:34;;;;;;;1.95;0.57;;;21.00;53.40;;;;;;5110825;28;20050;-72
2022/08/07 02:29:01;;;;;;;0.80;0.50;;;21.00;53.40;;;;;;5114258;28;20084;-72
2022/08/07 02:31:28;;;;;;;1.15;0.50;;;20.90;53.30;;;;;;5114008;28;20050;-72
2022/08/07 02:33:55;;;;;;;0.88;0.50;;;21.00;53.40;;;;;;5114175;28;20532;-72
2022/08/07 02:36:22;;;;;;;0.70;0.50;;;21.00;53.40;;;;;;5114307;28;20036;-72
2022/08/07 02:38:50;;;;;;;0.70;0.40;;;21.00;53.40;;;;;;5114032;28;20047;-72
2022/08/07 02:41:16;;;;;;;0.70;0.40;;;20.90;53.30;;;;;;5114185;28;20043;-72
2022/08/07 02:43:43;;;;;;;0.90;0.50;;;20.90;53.30;;;;;;5113952;28;20472;-72
2022/08/07 02:46:10;;;;;;;0.90;0.40;;;20.90;53.30;;;;;;5113828;28;20532;-72
2022/08/07 02:48:37;;;;;;;0.95;0.63;;;20.90;53.30;;;;;;5115108;28;20065;-72
2022/08/07 02:51:08;;;;;;;0.80;0.50;;;20.90;53.30;;;;;;5113865;28;20153;-72
2022/08/07 02:53:37;;;;;;;0.90;0.50;;;20.90;53.30;;;;;;5113897;28;20413;-72
2022/08/07 02:56:05;;;;;;;0.88;0.50;;;20.90;53.30;;;;;;5113676;28;20047;-72
2022/08/07 02:58:33;;;;;;;0.90;0.40;;;20.90;53.30;;;;;;5113845;28;20376;-72
2022/08/07 03:01:01;;;;;;;0.80;0.47;;;20.90;53.30;;;;;;5113617;28;20063;-72
2022/08/07 03:03:32;;;;;;;0.98;0.50;;;20.90;53.30;;;;;;5113731;28;20429;-72
2022/08/07 03:05:58;;;;;;;0.80;0.40;;;20.90;53.30;;;;;;5113526;28;20128;-72
2022/08/07 03:08:25;;;;;;;0.85;0.50;;;20.90;53.30;;;;;;5113564;28;20039;-72
2022/08/07 03:10:51;;;;;;;0.80;0.47;;;20.90;53.30;;;;;;5113761;28;20421;-72
2022/08/07 03:13:17;;;;;;;0.90;0.50;;;20.80;53.20;;;;;;5113509;28;20047;-72
2022/08/07 03:15:44;;;;;;;1.10;0.50;;;20.80;53.20;;;;;;5113577;28;20043;-72
2022/08/07 03:18:11;;;;;;;0.65;0.30;;;20.80;53.20;;;;;;5113469;28;20046;-72
2022/08/07 03:20:38;;;;;;;1.10;0.50;;;20.90;53.30;;;;;;5112890;28;20047;-72
2022/08/07 03:23:05;;;;;;;0.90;0.40;;;20.80;53.20;;;;;;5112974;28;20479;-72
2022/08/07 03:25:33;;;;;;;0.73;0.38;;;20.80;53.20;;;;;;5114425;28;20027;-72
2022/08/07 03:28:00;;;;;;;0.82;0.60;;;20.80;53.20;;;;;;5114266;28;20043;-72
2022/08/07 03:30:26;;;;;;;0.93;0.55;;;20.80;53.20;;;;;;5112985;28;20044;-72
2022/08/07 03:32:53;;;;;;;1.27;0.50;;;20.80;53.20;;;;;;5113145;28;20079;-72
2022/08/07 03:35:23;;;;;;;0.85;0.43;;;20.80;53.20;;;;;;5114233;28;20527;-72
2022/08/07 03:37:57;;;;;;;1.10;0.50;;;20.80;53.20;;;;;;5113150;28;20046;-72
2022/08/07 03:40:24;;;;;;;0.73;0.50;;;20.80;53.20;;;;;;5112890;28;20460;-72
2022/08/07 03:42:51;;;;;;;0.70;0.50;;;20.80;53.20;;;;;;5112740;28;20087;-72
2022/08/07 03:45:19;;;;;;;0.73;0.40;;;20.80;53.90;;;;;;5113970;28;20043;-72
2022/08/07 03:47:45;;;;;;;0.60;0.40;;;20.80;53.20;;;;;;5112772;28;20043;-72
2022/08/07 03:50:11;;;;;;;0.93;0.40;;;20.80;53.20;;;;;;5112933;28;20051;-72
2022/08/07 03:52:37;;;;;;;0.60;0.30;;;20.80;53.20;;;;;;5112600;28;20097;-72
2022/08/07 03:55:06;;;;;;;0.68;0.32;;;20.70;53.10;;;;;;5113722;28;20039;-72
2022/08/07 03:57:32;;;;;;;0.68;0.30;;;20.80;53.20;;;;;;5112765;28;20391;-72
2022/08/07 03:59:58;;;;;;;1.15;0.52;;;20.70;53.20;;;;;;5112354;28;20048;-72
2022/08/07 04:02:24;;;;;;;0.90;0.40;;;20.70;53.20;;;;;;5112389;28;20050;-72
2022/08/07 04:04:50;;;;;;;0.73;0.50;;;20.70;53.20;;;;;;5112213;28;20035;-71
2022/08/07 04:07:17;;;;;;;0.55;0.30;;;20.70;53.20;;;;;;5111827;28;20043;-72
2022/08/07 04:09:44;;;;;;;0.70;0.47;;;20.70;53.20;;;;;;5112165;28;20048;-72
2022/08/07 04:12:12;;;;;;;0.90;0.47;;;20.70;53.90;;;;;;5112279;28;20075;-72
2022/08/07 04:14:38;;;;;;;0.80;0.50;;;20.70;53.20;;;;;;5113303;28;20044;-72
2022/08/07 04:17:04;;;;;;;0.68;0.40;;;20.70;53.20;;;;;;5112407;28;20051;-72
2022/08/07 04:19:30;;;;;;;0.65;0.35;;;20.70;53.10;;;;;;5111838;28;20407;-72
2022/08/07 04:21:56;;;;;;;0.82;0.47;;;20.70;53.10;;;;;;5111953;28;20044;-72
2022/08/07 04:24:22;;;;;;;1.30;0.63;;;20.70;53.10;;;;;;5113470;27;20043;-72
2022/08/07 04:26:48;;;;;;;0.63;0.30;;;20.70;53.10;;;;;;5112129;28;20110;-72
2022/08/07 04:29:13;;;;;;;0.60;0.40;;;20.70;53.10;;;;;;5113162;28;20160;-72
2022/08/07 04:31:40;;;;;;;0.70;0.30;;;20.70;53.10;;;;;;5112950;28;20380;-72
2022/08/07 04:34:07;;;;;;;1.38;0.50;;;20.70;53.10;;;;;;5111729;28;20056;-72
2022/08/07 04:36:33;;;;;;;0.80;0.50;;;20.60;53.10;;;;;;5111647;28;20119;-72
2022/08/07 04:39:00;;;;;;;1.25;0.40;;;20.60;53.00;;;;;;5111914;28;20144;-72
2022/08/07 04:41:26;;;;;;;0.93;0.40;;;20.70;53.10;;;;;;5111864;28;20391;-72
2022/08/07 04:43:54;;;;;;;0.50;0.30;;;20.60;53.10;;;;;;5111568;28;20043;-72
2022/08/07 04:52:29;;;;;;;0.65;0.30;;;20.60;53.10;;;;;;5130354;27;20755;-72
2022/08/07 04:57:46;;;;;;;0.70;0.40;;;20.60;53.10;;;;;;5130246;27;20853;-72
2022/08/07 05:00:17;;;;;;;0.70;0.40;;;20.60;53.10;;;;;;5129043;28;20484;-72
2022/08/07 05:05:44;;;;;;;0.65;0.47;;;20.60;53.10;;;;;;5130403;27;20096;-72
2022/08/07 05:08:39;;;;;;;0.57;0.30;;;20.50;53.00;;;;;;5129139;28;20178;-72
2022/08/07 05:11:12;;;;;;;1.70;0.50;;;20.60;53.10;;;;;;5146055;27;20043;-71
2022/08/07 05:13:48;;;;;;;0.98;0.50;;;20.60;53.10;;;;;;5128967;28;20031;-71
2022/08/07 05:16:16;;;;;;;0.82;0.40;;;20.60;53.10;;;;;;5146398;27;20075;-71
2022/08/07 05:18:49;;;;;;;0.75;0.47;;;20.60;53.10;;;;;;5128779;28;20085;-72
2022/08/07 05:21:22;;;;;;;0.77;0.40;;;20.60;53.10;;;;;;5129006;28;20035;-72
2022/08/07 05:23:56;;;;;;;0.55;0.40;;;20.50;53.10;;;;;;5128895;28;20051;-72
2022/08/07 05:26:24;;;;;;;0.90;0.40;;;20.50;53.10;;;;;;5128702;28;20061;-72
2022/08/07 05:28:53;;;;;;;1.00;0.40;;;20.50;53.10;;;;;;5128832;28;20050;-72
2022/08/07 05:31:22;;;;;;;0.80;0.40;;;20.50;53.10;;;;;;5128908;28;20039;-72
2022/08/07 05:33:50;;;;;;;0.70;0.30;;;20.50;53.10;;;;;;5128529;28;20058;-72
2022/08/07 05:36:17;;;;;;;0.80;0.35;;;20.50;53.10;;;;;;5129779;27;20261;-71
2022/08/07 05:38:44;;;;;;;0.60;0.40;;;20.50;53.10;;;;;;5128428;28;20080;-72
2022/08/07 05:41:10;;;;;;;0.95;0.52;;;20.50;53.20;;;;;;5128447;28;20058;-72
2022/08/07 05:43:38;;;;;;;0.82;0.45;;;20.50;53.20;;;;;;5128149;28;20054;-72
2022/08/07 05:46:04;;;;;;;0.90;0.40;;;20.50;53.20;;;;;;5128331;28;20064;-72
2022/08/07 05:48:30;;;;;;;0.85;0.45;;;20.50;53.20;;;;;;5129556;27;20042;-71
2022/08/07 05:50:58;;;;;;;0.80;0.38;;;20.50;53.20;;;;;;5128226;28;20043;-72
2022/08/07 05:53:24;;;;;;;0.82;0.50;;;20.50;53.20;;;;;;5128056;28;20031;-72
2022/08/07 05:55:55;;;;;;;0.88;0.40;;;20.50;54.00;;;;;;5128118;28;20038;-72
2022/08/07 05:58:23;;;;;;;0.70;0.40;;;20.50;53.30;;;;;;5127974;27;20031;-72
2022/08/07 06:00:50;;;;;;;0.93;0.50;;;20.50;53.30;;;;;;5128317;28;20043;-72
2022/08/07 06:03:18;;;;;;;1.17;0.50;;;20.50;53.30;;;;;;5127652;28;20034;-72
2022/08/07 06:05:47;;;;;;;1.02;0.43;;;20.50;53.30;;;;;;5127895;28;20123;-71
2022/08/07 06:08:14;;;;;;;0.60;0.40;;;20.50;53.30;;;;;;5127833;28;20044;-72
2022/08/07 06:10:40;;;;;;;0.95;0.43;;;20.50;53.30;;;;;;5129127;27;20039;-72
2022/08/07 06:13:06;;;;;;;0.63;0.43;;;20.50;53.30;;;;;;5127717;28;20126;-72
2022/08/07 06:15:35;;;;;;;1.10;0.50;;;20.50;53.40;;;;;;5122554;28;20122;-71
2022/08/07 06:18:02;;;;;;;0.85;0.40;;;20.50;53.40;;;;;;5114051;28;20499;-72
2022/08/07 06:20:29;;;;;;;1.25;0.68;;;20.50;53.40;;;;;;5114173;28;20043;-72
2022/08/07 06:22:56;;;;;;;0.90;0.50;;;20.50;53.40;;;;;;5114220;28;20035;-72
2022/08/07 06:25:22;;;;;;;1.40;0.70;;;20.50;53.50;;;;;;5113979;28;20518;-72
2022/08/07 06:27:48;;;;;;;0.98;0.57;;;20.50;53.50;;;;;;5114009;28;20039;-72
2022/08/07 06:30:13;;;;;;;1.02;0.60;;;20.50;53.50;;;;;;5113911;28;20390;-72
2022/08/07 06:32:39;;;;;;;0.85;0.50;;;20.50;53.50;;;;;;5113675;28;20043;-72
2022/08/07 06:35:05;;;;;;;0.90;0.52;;;20.50;53.50;;;;;;5113659;28;20047;-72
2022/08/07 06:37:31;;;;;;;0.82;0.50;;;20.50;53.50;;;;;;5114943;28;20538;-72
2022/08/07 06:39:56;;;;;;;1.13;0.70;;;20.50;53.50;;;;;;5113552;28;20040;-72
2022/08/07 06:42:28;;;;;;;1.17;0.52;;;20.50;53.60;;;;;;5113544;28;20047;-72
2022/08/07 06:44:56;;;;;;;0.98;0.50;;;20.50;53.60;;;;;;5113502;28;20080;-72
2022/08/07 06:47:22;;;;;;;0.98;0.65;;;20.50;53.60;;;;;;5113437;28;20044;-72
2022/08/07 06:49:48;;;;;;;0.90;0.50;;;20.50;53.60;;;;;;5113381;28;20031;-72
2022/08/07 06:52:14;;;;;;;1.20;0.70;;;20.50;53.50;;;;;;5113629;28;20038;-71
2022/08/07 06:54:41;;;;;;;0.70;0.60;;;20.50;53.60;;;;;;5113500;28;20128;-72
2022/08/07 06:57:08;;;;;;;0.80;0.60;;;20.50;53.60;;;;;;5113429;28;20398;-72
2022/08/07 06:59:40;;;;;;;1.10;0.75;;;20.50;53.60;;;;;;5113134;28;20043;-72
2022/08/07 07:02:13;;;;;;;1.30;0.85;;;20.50;53.60;;;;;;5114445;28;20032;-72
2022/08/07 07:04:39;;;;;;;0.88;0.70;;;20.50;53.60;;;;;;5112678;28;20056;-72
2022/08/07 07:07:06;;;;;;;0.90;0.60;;;20.50;53.60;;;;;;5112949;28;20114;-72
2022/08/07 07:09:32;;;;;;;1.05;0.65;;;20.50;53.60;;;;;;5112962;28;20047;-71
2022/08/07 07:17:46;;;;;;;1.20;0.80;;;20.50;53.60;;;;;;5089355;28;20901;-71
2022/08/07 07:20:17;;;;;;;1.27;0.73;;;20.50;53.70;;;;;;5087832;28;20135;-72
2022/08/07 07:22:44;;;;;;;1.17;0.75;;;20.50;53.60;;;;;;5088066;28;20044;-72
2022/08/07 07:25:11;;;;;;;1.00;0.80;;;20.50;53.70;;;;;;5104985;28;20064;-71
2022/08/07 07:27:43;;;;;;;1.15;0.82;;;20.50;53.60;;;;;;5087995;28;20070;-72
2022/08/07 07:30:11;;;;;;;1.05;0.75;;;20.50;53.70;;;;;;5087853;28;20098;-72
2022/08/07 07:32:39;;;;;;;1.77;1.23;;;20.50;53.70;;;;;;5105080;28;20090;-72
2022/08/07 07:35:08;;;;;;;1.15;0.68;;;20.50;53.70;;;;;;5087716;28;20032;-72
2022/08/07 07:37:36;;;;;;;1.00;0.68;;;20.50;53.70;;;;;;5089213;28;20040;-72
2022/08/07 07:40:06;;;;;;;1.25;0.70;;;20.50;53.70;;;;;;5088117;28;20499;-72
2022/08/07 07:42:33;;;;;;;1.20;0.90;;;20.50;53.70;;;;;;5087601;28;20066;-72
2022/08/07 07:45:04;;;;;;;1.60;0.70;;;20.50;53.70;;;;;;5088020;28;20484;-72
2022/08/07 07:47:33;;;;;;;1.08;0.77;;;20.50;53.70;;;;;;5087710;28;20044;-72
2022/08/07 07:50:00;;;;;;;0.95;0.60;;;20.50;53.70;;;;;;5088976;28;20074;-71
2022/08/07 07:52:26;;;;;;;1.00;0.65;;;20.50;53.70;;;;;;5087744;28;20089;-72
2022/08/07 07:54:54;;;;;;;1.33;0.98;;;20.50;53.70;;;;;;5087423;28;20505;-72
2022/08/07 07:57:23;;;;;;;1.17;0.90;;;20.50;53.70;;;;;;5088702;28;20097;-72
2022/08/07 07:59:50;;;;;;;1.60;0.90;;;20.50;53.70;;;;;;5087378;28;20036;-71
2022/08/07 08:02:18;;;;;;;1.55;1.25;;;20.50;53.70;;;;;;5087262;28;20044;-72
2022/08/07 08:04:45;;;;;;;1.10;0.90;;;20.50;53.70;;;;;;5087517;28;20109;-72
2022/08/07 08:07:13;;;;;;;1.95;0.80;;;20.50;53.70;;;;;;5087466;28;20070;-71
2022/08/07 08:09:40;;;;;;;1.10;0.80;;;20.50;53.60;;;;;;5087657;28;20054;-72
2022/08/07 08:12:06;;;;;;;2.13;1.15;;;20.50;53.60;;;;;;5087139;28;20484;-72
2022/08/07 08:14:33;;;;;;;1.10;0.93;;;20.50;53.60;;;;;;5087134;28;20052;-72
2022/08/07 08:17:00;;;;;;;1.63;1.10;;;20.50;53.60;;;;;;5086603;28;20052;-72
2022/08/07 08:19:28;;;;;;;0.98;0.75;;;20.50;53.60;;;;;;5088523;28;20055;-72
2022/08/07 08:27:34;;;;;;;1.35;0.80;;;20.60;53.60;;;;;;5080755;28;20531;-72
2022/08/07 08:32:48;;;;;;;1.10;0.80;;;20.50;53.50;;;;;;5152923;27;1162939;-72
2022/08/07 08:35:20;;;;;;;1.25;1.00;;;20.60;53.50;;;;;;5153103;27;20042;-72
2022/08/07 08:37:48;;;;;;;1.30;1.10;;;20.60;53.50;;;;;;5153061;27;20115;-72
2022/08/07 08:40:23;;;;;;;1.63;0.90;;;20.60;53.50;;;;;;5152954;27;20077;-72
2022/08/07 08:42:59;;;;;;;1.45;1.17;;;20.60;53.50;;;;;;5153229;27;20141;-72
2022/08/07 08:45:54;;;;;;;1.45;0.95;;;20.60;53.40;;;;;;5153175;27;20044;-72
2022/08/07 08:51:31;;;;;;;0.98;0.65;;;20.60;53.40;;;;;;5130251;27;20395;-72
2022/08/07 08:54:23;;;;;;;1.33;0.88;;;20.60;53.30;;;;;;5130193;27;20035;-72
2022/08/07 08:56:51;;;;;;;1.77;1.08;;;20.60;53.30;;;;;;5129019;28;20545;-72
2022/08/07 09:04:59;;;;;;;1.20;0.75;;;20.60;53.30;;;;;;5130309;27;20379;-72
2022/08/07 09:07:42;;;;;;;1.35;0.98;;;20.70;53.20;;;;;;5130179;27;20044;-71
2022/08/07 09:10:31;;;;;;;1.10;0.70;;;20.70;53.20;;;;;;5129162;28;20035;-71
2022/08/07 09:13:12;;;;;;;2.33;1.70;;;20.70;53.10;;;;;;5130292;27;20394;-72
2022/08/07 09:40:54;;;;;;;1.40;0.95;;;21.10;52.50;;;;;;5130300;27;20350;-72
2022/08/07 09:48:56;;;;;;;1.00;0.80;;;21.20;52.10;;;;;;5089521;27;20851;-72
2022/08/07 09:51:52;;;;;;;1.27;0.88;;;21.30;52.00;;;;;;5088392;28;20123;-72
2022/08/07 09:54:27;;;;;;;1.50;1.33;;;21.30;51.90;;;;;;5105152;28;20067;-72
2022/08/07 09:57:20;;;;;;;1.25;0.90;;;21.30;51.90;;;;;;5105017;28;20079;-72
2022/08/07 10:03:10;;;;;;;1.25;0.80;;;21.30;51.90;;;;;;5089470;27;20378;-72
2022/08/07 10:08:50;;;;;;;1.15;1.05;;;21.30;51.80;;;;;;5130295;27;20383;-72
2022/08/07 10:48:26;;;;;;;1.38;0.77;;;21.40;51.50;;;;;;5130331;27;20353;-72
2022/08/07 10:50:59;;;;;;;1.42;1.15;;;21.40;51.50;;;;;;5128928;28;20039;-72
2022/08/07 10:53:56;;;;;;;1.48;1.13;;;21.40;51.60;;;;;;5128894;27;20043;-72
2022/08/07 10:59:39;;;;;;;1.30;0.80;;;21.40;51.60;;;;;;5109799;27;20299;-72
2022/08/07 11:10:32;;;;;;;1.30;0.90;;;21.40;51.60;;;;;;5130462;27;20196;-72
2022/08/07 11:13:06;;;;;;;1.65;1.33;;;21.40;51.60;;;;;;5129231;28;20050;-72
2022/08/07 11:15:37;;;;;;;1.55;1.08;;;21.40;51.60;;;;;;5130224;27;20073;-72
2022/08/07 11:18:14;;;;;;;1.42;1.05;;;21.40;51.60;;;;;;5128879;28;20039;-73
2022/08/07 11:23:46;;;;;;;1.63;1.02;;;21.40;51.60;;;;;;5130277;27;20387;-72
2022/08/07 11:31:47;;;;;;;1.17;0.82;;;21.40;51.60;;;;;;5130338;27;20383;-72
2022/08/07 11:40:34;;;;;;;1.30;0.88;;;21.40;51.60;;;;;;5130318;27;20586;-72
2022/08/07 12:03:23;;;;;;;1.27;1.08;;;21.40;51.70;;;;;;5130257;27;20112;-72
2022/08/07 12:08:57;;;;;;;1.20;0.80;;;21.40;51.70;;;;;;5130236;27;20350;-72
2022/08/07 12:11:26;;;;;;;1.10;0.80;;;21.30;51.70;;;;;;5128989;28;20055;-72
2022/08/07 12:16:39;;;;;;;0.70;0.60;;;21.30;51.70;;;;;;5130235;27;20353;-72
2022/08/07 12:27:32;;;;;;;1.00;0.80;;;21.40;51.70;;;;;;5152093;27;1187322;-72
2022/08/07 12:30:02;;;;;;;0.95;0.52;;;21.40;51.80;;;;;;5171729;27;20402;-72
2022/08/07 12:32:43;;;;;;;1.05;0.70;;;21.40;51.80;;;;;;5153046;27;20038;-72
2022/08/07 12:35:12;;;;;;;0.90;0.60;;;21.40;51.80;;;;;;5171759;27;20097;-72
2022/08/07 12:37:40;;;;;;;1.25;0.85;;;21.40;51.80;;;;;;5152888;27;20035;-72
2022/08/07 12:40:09;;;;;;;1.17;0.70;;;21.40;51.70;;;;;;5153227;27;20030;-72
2022/08/07 12:42:36;;;;;;;1.20;0.80;;;21.40;51.70;;;;;;5152881;27;20038;-72
2022/08/07 12:45:22;;;;;;;1.17;0.80;;;21.40;51.70;;;;;;5171566;27;20374;-73
2022/08/07 12:48:06;;;;;;;1.30;0.90;;;21.40;51.70;;;;;;5152642;27;20606;-72
2022/08/07 12:53:36;;;;;;;1.08;0.57;;;21.40;51.70;;;;;;5152798;27;1165914;-72
2022/08/07 12:56:09;;;;;;;0.90;0.55;;;21.50;51.70;;;;;;5171625;27;20087;-72
2022/08/07 12:58:37;;;;;;;0.98;0.68;;;21.40;51.70;;;;;;5153047;27;20038;-72
2022/08/07 13:07:18;;;;;;;1.30;0.70;;;21.40;51.70;;;;;;5130320;27;20411;-72
2022/08/07 13:19:13;;;;;;;1.08;0.50;;;21.50;51.70;;;;;;5089432;28;20352;-72
2022/08/07 13:21:43;;;;;;;1.20;0.60;;;21.50;51.60;;;;;;5087938;28;20040;-72
2022/08/07 13:27:04;;;;;;;0.93;0.68;;;21.50;51.60;;;;;;5130296;27;20387;-72
2022/08/07 13:32:27;;;;;;;1.42;0.88;;;21.50;51.60;;;;;;5130254;27;20350;-73
2022/08/07 13:35:00;;;;;;;1.33;0.90;;;21.50;51.60;;;;;;5146243;27;20142;-73
2022/08/07 13:37:37;;;;;;;0.90;0.47;;;21.50;51.60;;;;;;5129102;28;20054;-72
2022/08/07 13:42:49;;;;;;;0.90;0.60;;;21.50;51.60;;;;;;5089334;27;20352;-72
2022/08/07 13:45:17;;;;;;;0.60;0.47;;;21.50;51.50;;;;;;5088403;28;20056;-72
2022/08/07 13:47:46;;;;;;;1.02;0.68;;;21.50;51.50;;;;;;5088051;28;20040;-72
2022/08/07 13:50:13;;;;;;;0.93;0.70;;;21.60;51.60;;;;;;5088394;28;20040;-72
2022/08/07 13:52:43;;;;;;;1.30;0.82;;;21.50;51.50;;;;;;5088035;28;20044;-72
2022/08/07 13:55:10;;;;;;;;;;;21.60;51.60;;;;;;5088526;28;20059;-72
2022/08/07 13:57:39;;;;;;;1.02;0.50;;;21.60;51.50;;;;;;5089412;28;19916;-72
2022/08/07 14:00:08;;;;;;;0.90;0.57;;;21.60;51.60;;;;;;5088099;28;20040;-72
2022/08/07 14:02:35;;;;;;;1.17;0.68;;;21.60;51.60;;;;;;5089217;28;20048;-72
2022/08/07 14:05:04;;;;;;;1.30;0.90;;;21.60;51.60;;;;;;5087977;28;20044;-73
2022/08/07 14:07:36;;;;;;;0.95;0.75;;;21.60;51.60;;;;;;5087766;28;20067;-72
2022/08/07 14:10:04;;;;;;;0.90;0.52;;;21.60;51.60;;;;;;5087616;28;20052;-72
2022/08/07 14:12:57;;;;;;;0.98;0.52;;;21.60;51.60;;;;;;5088941;28;20044;-72
2022/08/07 14:15:29;;;;;;;0.90;0.50;;;21.60;51.60;;;;;;5087364;28;20093;-72
2022/08/07 14:18:00;;;;;;;1.02;0.55;;;21.60;51.70;;;;;;5087522;28;20048;-73
2022/08/07 14:20:29;;;;;;;1.10;0.70;;;21.60;51.70;;;;;;5087255;28;20044;-73
2022/08/07 14:23:07;;;;;;;1.17;0.70;;;21.60;51.60;;;;;;5087729;28;20059;-73
2022/08/07 14:25:35;;;;;;;1.35;0.60;;;21.60;51.60;;;;;;5087355;28;20032;-73
2022/08/07 14:28:06;;;;;;;1.00;0.70;;;21.60;51.60;;;;;;5087278;28;20037;-72
2022/08/07 14:30:33;;;;;;;1.48;0.63;;;21.70;51.70;;;;;;5087157;28;20051;-73
2022/08/07 14:33:02;;;;;;;1.20;0.85;;;21.70;51.70;;;;;;5088414;28;20391;-73
2022/08/07 14:35:30;;;;;;;0.90;0.60;;;21.70;51.70;;;;;;5087189;28;20077;-72
2022/08/07 14:37:57;;;;;;;0.85;0.63;;;21.70;51.70;;;;;;5088511;28;20040;-72
2022/08/07 14:40:25;;;;;;;1.30;0.70;;;21.70;51.70;;;;;;5086957;28;20048;-73
2022/08/07 14:42:56;;;;;;;1.13;0.73;;;21.70;51.70;;;;;;5087014;28;20131;-73
2022/08/07 14:45:27;;;;;;;0.95;0.68;;;21.70;51.70;;;;;;5087187;28;20037;-72
2022/08/07 14:47:57;;;;;;;1.10;0.80;;;21.70;51.70;;;;;;5088259;28;20064;-72
2022/08/07 14:50:25;;;;;;;0.90;0.60;;;21.70;51.70;;;;;;5086888;28;20116;-73
2022/08/07 14:52:53;;;;;;;1.00;0.70;;;21.70;51.70;;;;;;5080192;28;20717;-72
2022/08/07 14:55:19;;;;;;;1.20;0.60;;;21.70;51.70;;;;;;5073540;28;20048;-72
2022/08/07 14:57:49;;;;;;;1.08;0.50;;;21.70;51.70;;;;;;5073351;28;20050;-72
2022/08/07 15:00:16;;;;;;;;;;;21.70;51.70;;;;;;5074889;28;20119;-72
2022/08/07 15:02:45;;;;;;;1.00;0.63;;;21.70;51.70;;;;;;5073495;28;19920;-73
2022/08/07 15:05:14;;;;;;;0.90;0.50;;;21.70;51.70;;;;;;5073447;28;20033;-72
2022/08/07 15:07:43;;;;;;;0.87;0.60;;;21.80;51.80;;;;;;5073411;28;20052;-72
2022/08/07 15:10:18;;;;;;;0.93;0.40;;;21.70;51.70;;;;;;5074226;28;20266;-72
2022/08/07 15:12:44;;;;;;;0.90;0.50;;;21.70;51.70;;;;;;5072701;28;20043;-72
2022/08/07 15:15:17;;;;;;;0.95;0.60;;;21.70;51.70;;;;;;5073316;28;20033;-73
2022/08/07 15:17:51;;;;;;;0.90;0.50;;;21.80;51.80;;;;;;5073165;28;20081;-72
2022/08/07 15:20:23;;;;;;;1.33;1.00;;;21.80;51.80;;;;;;5072919;28;20048;-72
2022/08/07 15:22:51;;;;;;;0.90;0.52;;;21.80;51.80;;;;;;5073059;28;20419;-73
2022/08/07 15:25:24;;;;;;;1.00;0.60;;;21.80;51.80;;;;;;5073144;28;20496;-72
2022/08/07 15:27:56;;;;;;;0.85;0.50;;;21.80;51.80;;;;;;5074195;28;20033;-72
2022/08/07 15:30:23;;;;;;;0.88;0.50;;;21.80;51.80;;;;;;5074004;28;20483;-72
2022/08/07 15:32:51;;;;;;;1.20;0.70;;;21.80;51.80;;;;;;5072944;28;20044;-72
2022/08/07 15:35:20;;;;;;;1.13;0.60;;;21.90;51.90;;;;;;5072670;28;20036;-73
2022/08/07 15:37:54;;;;;;;0.70;0.60;;;21.80;51.80;;;;;;5072875;28;20044;-73
2022/08/07 15:40:23;;;;;;;0.90;0.75;;;21.80;51.90;;;;;;5072499;28;20619;-72
2022/08/07 15:42:54;;;;;;;0.90;0.70;;;21.80;51.90;;;;;;5072433;28;20079;-72
2022/08/07 15:48:12;;;;;;;0.77;0.60;;;21.90;51.90;;;;;;5130205;27;20789;-72
2022/08/07 15:50:43;;;;;;;0.68;0.40;;;21.90;52.00;;;;;;5128948;28;20376;-72
2022/08/07 15:53:14;;;;;;;1.00;0.63;;;21.80;51.90;;;;;;5128937;28;20039;-72
2022/08/07 15:55:45;;;;;;;1.10;0.70;;;21.80;51.90;;;;;;5129206;28;20071;-72
2022/08/07 15:58:15;;;;;;;1.10;0.70;;;21.90;52.00;;;;;;5129113;27;20040;-72
2022/08/07 16:00:41;;;;;;;1.00;0.70;;;21.90;52.00;;;;;;5129121;28;20124;-72
2022/08/07 16:03:15;;;;;;;0.90;0.50;;;21.90;52.10;;;;;;5128664;27;20035;-72
2022/08/07 16:05:46;;;;;;;1.40;0.60;;;21.90;52.00;;;;;;5128712;28;20114;-72
2022/08/07 16:08:13;;;;;;;;;;;21.90;52.10;;;;;;5129114;28;20093;-72
2022/08/07 16:10:43;;;;;;;0.80;0.50;;;21.90;52.10;;;;;;5146178;27;19961;-72
2022/08/07 16:16:35;;;;;;;0.80;0.43;;;21.90;52.10;;;;;;5130380;27;20383;-72
2022/08/07 16:19:27;;;;;;;1.02;0.60;;;21.90;52.10;;;;;;5128938;27;20043;-72
2022/08/07 16:25:38;;;;;;;1.30;0.68;;;21.90;52.10;;;;;;5130283;27;20414;-72